Time;durP1;ratioP1;P1;durP2;ratioP2;P2;SDS_P1;SDS_P2;PMS_P1;PMS_P2;Temp;Humidity;BMP_temperature;BMP_pressure;BME280_temperature;BME280_humidity;BME280_pressure;Samples;Min_cycle;Max_cycle;Signal;HPM_P1;HPM_P2
2024/01/23 00:01:46;;;;;;;32.33;17.97;;;;;;;;;;784423;179;710669;-72
2024/01/23 00:04:12;;;;;;;34.07;17.37;;;;;;;;;;774527;179;936556;-73
2024/01/23 00:06:38;;;;;;;29.95;18.30;;;;;;;;;;775806;179;919347;-73
2024/01/23 00:09:04;;;;;;;24.23;16.80;;;;;;;;;;781967;179;870085;-72
2024/01/23 00:11:30;;;;;;;31.97;17.57;;;;;;;;;;773477;180;819886;-72
2024/01/23 00:13:56;;;;;;;28.20;17.73;;;;;;;;;;775060;176;968591;-72
2024/01/23 00:16:21;;;;;;;31.40;17.27;;;;;;;;;;764478;181;919229;-71
2024/01/23 00:18:47;;;;;;;28.70;17.40;;;;;;;;;;777330;179;937881;-71
2024/01/23 00:21:13;;;;;;;26.50;15.00;;;;;;;;;;778696;178;919631;-72
2024/01/23 00:23:39;;;;;;;25.60;17.13;;;;;;;;;;775545;180;890084;-72
2024/01/23 00:26:05;;;;;;;25.07;14.57;;;;;;;;;;771156;181;915773;-71
2024/01/23 00:28:31;;;;;;;31.07;19.50;;;;;;;;;;771645;180;919511;-72
2024/01/23 00:30:56;;;;;;;37.47;17.30;;;;;;;;;;776597;180;919104;-72
2024/01/23 00:33:22;;;;;;;26.27;17.73;;;;;;;;;;782695;180;816189;-71
2024/01/23 00:35:48;;;;;;;35.47;17.97;;;;;;;;;;775094;180;917964;-71
2024/01/23 00:38:14;;;;;;;34.90;17.87;;;;;;;;;;771623;180;925610;-72
2024/01/23 00:40:40;;;;;;;35.47;20.50;;;;;;;;;;781106;180;918228;-71
2024/01/23 00:43:06;;;;;;;34.63;19.67;;;;;;;;;;765017;180;918543;-71
2024/01/23 00:45:32;;;;;;;34.10;18.50;;;;;;;;;;772311;179;919488;-72
2024/01/23 00:47:58;;;;;;;28.42;16.52;;;;;;;;;;777644;179;917860;-72
2024/01/23 00:50:25;;;;;;;35.53;19.27;;;;;;;;;;771760;180;1019322;-71
2024/01/23 00:52:50;;;;;;;37.38;20.75;;;;;;;;;;769447;179;946460;-72
2024/01/23 00:55:16;;;;;;;36.13;19.47;;;;;;;;;;778254;179;918801;-71
2024/01/23 00:57:42;;;;;;;32.63;18.97;;;;;;;;;;776706;179;813749;-72
2024/01/23 01:00:09;;;;;;;37.00;20.00;;;;;;;;;;775340;179;920534;-71
2024/01/23 01:02:34;;;;;;;36.03;20.70;;;;;;;;;;768297;179;932282;-72
2024/01/23 01:04:59;;;;;;;32.87;19.07;;;;;;;;;;772370;180;817184;-71
2024/01/23 01:07:25;;;;;;;34.33;21.50;;;;;;;;;;776603;177;817328;-72
2024/01/23 01:09:51;;;;;;;32.55;17.80;;;;;;;;;;776376;180;899049;-71
2024/01/23 01:12:17;;;;;;;27.97;18.10;;;;;;;;;;781157;180;918790;-71
2024/01/23 01:14:43;;;;;;;28.83;18.30;;;;;;;;;;770201;181;936855;-71
2024/01/23 01:17:09;;;;;;;34.43;18.47;;;;;;;;;;775576;179;917956;-73
2024/01/23 01:19:35;;;;;;;32.93;18.43;;;;;;;;;;773531;180;814593;-71
2024/01/23 01:22:00;;;;;;;36.10;19.17;;;;;;;;;;778680;180;938942;-71
2024/01/23 01:24:26;;;;;;;44.03;20.80;;;;;;;;;;766023;180;924778;-71
2024/01/23 01:26:52;;;;;;;33.50;20.43;;;;;;;;;;780472;180;821762;-71
2024/01/23 01:29:18;;;;;;;33.80;18.67;;;;;;;;;;783885;179;817462;-70
2024/01/23 01:31:44;;;;;;;34.03;20.73;;;;;;;;;;776570;180;927885;-71
2024/01/23 01:34:10;;;;;;;37.73;20.60;;;;;;;;;;769258;180;917597;-71
2024/01/23 01:36:35;;;;;;;32.50;19.20;;;;;;;;;;774596;180;920271;-71
2024/01/23 01:39:03;;;;;;;40.05;22.13;;;;;;;;;;773622;179;851921;-72
2024/01/23 01:41:27;;;;;;;36.57;21.33;;;;;;;;;;774340;179;918674;-71
2024/01/23 01:43:53;;;;;;;29.83;18.30;;;;;;;;;;779762;179;918582;-72
2024/01/23 01:46:19;;;;;;;32.77;19.40;;;;;;;;;;777874;180;806845;-71
2024/01/23 01:48:45;;;;;;;39.30;23.57;;;;;;;;;;773483;180;918316;-71
2024/01/23 01:51:11;;;;;;;39.50;21.43;;;;;;;;;;775977;178;912731;-71
2024/01/23 01:53:37;;;;;;;32.63;19.17;;;;;;;;;;781044;179;919239;-71
2024/01/23 01:56:04;;;;;;;31.50;18.20;;;;;;;;;;770894;179;919303;-70
2024/01/23 01:58:29;;;;;;;33.53;17.90;;;;;;;;;;764178;180;918599;-71
2024/01/23 02:00:55;;;;;;;37.70;19.47;;;;;;;;;;786861;178;816246;-72
2024/01/23 02:03:22;;;;;;;39.80;22.20;;;;;;;;;;776081;176;944762;-70
2024/01/23 02:05:47;;;;;;;36.17;20.05;;;;;;;;;;761968;181;914123;-71
2024/01/23 02:08:13;;;;;;;39.13;18.13;;;;;;;;;;775111;180;913463;-70
2024/01/23 02:10:39;;;;;;;32.97;19.27;;;;;;;;;;771656;179;929939;-71
2024/01/23 02:13:06;;;;;;;39.70;19.20;;;;;;;;;;759415;181;815660;-71
2024/01/23 02:15:31;;;;;;;33.07;18.87;;;;;;;;;;777866;180;918920;-71
2024/01/23 02:17:57;;;;;;;38.75;20.00;;;;;;;;;;776463;180;1017414;-70
2024/01/23 02:20:22;;;;;;;31.33;17.73;;;;;;;;;;777111;180;915403;-70
2024/01/23 02:22:48;;;;;;;31.90;17.30;;;;;;;;;;768451;179;913240;-71
2024/01/23 02:25:14;;;;;;;33.90;19.70;;;;;;;;;;774134;179;915660;-71
2024/01/23 02:27:40;;;;;;;37.00;20.00;;;;;;;;;;778364;179;812550;-70
2024/01/23 02:30:06;;;;;;;33.47;18.35;;;;;;;;;;777792;179;929340;-71
2024/01/23 02:32:32;;;;;;;35.30;18.50;;;;;;;;;;779242;180;915963;-71
2024/01/23 02:34:58;;;;;;;34.53;19.33;;;;;;;;;;779473;179;813100;-70
2024/01/23 02:37:24;;;;;;;42.67;19.53;;;;;;;;;;779011;178;813949;-71
2024/01/23 02:39:50;;;;;;;36.13;19.93;;;;;;;;;;765190;183;915165;-71
2024/01/23 02:42:15;;;;;;;36.60;19.50;;;;;;;;;;777278;180;911652;-70
2024/01/23 02:44:45;;;;;;;37.90;18.00;;;;;;;;;;770515;180;915445;-71
2024/01/23 02:47:07;;;;;;;34.50;18.93;;;;;;;;;;774957;180;913615;-71
2024/01/23 02:49:33;;;;;;;31.10;18.80;;;;;;;;;;775476;180;821846;-71
2024/01/23 02:51:59;;;;;;;33.53;20.00;;;;;;;;;;771128;180;922373;-71
2024/01/23 02:54:25;;;;;;;37.40;18.60;;;;;;;;;;772631;180;916038;-71
2024/01/23 02:56:52;;;;;;;43.10;17.83;;;;;;;;;;780847;177;918937;-71
2024/01/23 02:59:16;;;;;;;33.23;18.27;;;;;;;;;;758793;178;918679;-70
2024/01/23 03:01:42;;;;;;;38.37;18.40;;;;;;;;;;762971;180;920281;-70
2024/01/23 03:04:09;;;;;;;34.13;19.23;;;;;;;;;;772757;180;919223;-72
2024/01/23 03:06:34;;;;;;;34.37;17.67;;;;;;;;;;779862;179;819999;-70
2024/01/23 03:09:00;;;;;;;40.50;18.93;;;;;;;;;;775538;176;917529;-70
2024/01/23 03:11:26;;;;;;;34.33;18.60;;;;;;;;;;773181;179;812128;-71
2024/01/23 03:13:52;;;;;;;32.37;17.63;;;;;;;;;;775059;180;919683;-71
2024/01/23 03:16:18;;;;;;;31.80;17.07;;;;;;;;;;776907;178;925076;-70
2024/01/23 03:18:44;;;;;;;30.30;18.30;;;;;;;;;;761593;183;920543;-70
2024/01/23 03:21:09;;;;;;;36.37;19.70;;;;;;;;;;775568;180;918923;-70
2024/01/23 03:23:35;;;;;;;32.03;18.93;;;;;;;;;;772505;180;1015267;-70
2024/01/23 03:26:01;;;;;;;36.95;19.95;;;;;;;;;;778175;179;899849;-70
2024/01/23 03:28:27;;;;;;;31.47;18.53;;;;;;;;;;782438;179;916698;-71
2024/01/23 03:30:53;;;;;;;31.73;18.43;;;;;;;;;;760396;179;913666;-70
2024/01/23 03:33:19;;;;;;;33.03;18.80;;;;;;;;;;769945;180;920295;-71
2024/01/23 03:35:45;;;;;;;37.23;21.27;;;;;;;;;;774945;180;916654;-71
2024/01/23 03:38:10;;;;;;;34.73;20.27;;;;;;;;;;777983;180;919317;-70
2024/01/23 03:40:36;;;;;;;32.83;18.90;;;;;;;;;;768578;180;928722;-71
2024/01/23 03:43:02;;;;;;;31.93;18.60;;;;;;;;;;762554;181;920417;-71
2024/01/23 03:45:28;;;;;;;40.30;20.43;;;;;;;;;;778312;179;910530;-70
2024/01/23 03:47:54;;;;;;;28.47;16.40;;;;;;;;;;772475;179;905484;-70
2024/01/23 03:50:20;;;;;;;31.83;20.07;;;;;;;;;;776853;179;1000538;-70
2024/01/23 03:52:46;;;;;;;35.23;18.13;;;;;;;;;;780912;180;811523;-70
2024/01/23 03:55:12;;;;;;;36.70;18.03;;;;;;;;;;774242;180;920059;-70
2024/01/23 03:57:37;;;;;;;35.35;19.87;;;;;;;;;;772895;180;918198;-70
2024/01/23 04:00:04;;;;;;;32.88;19.70;;;;;;;;;;778513;180;915171;-70
2024/01/23 04:02:31;;;;;;;39.58;19.40;;;;;;;;;;769564;180;916509;-70
2024/01/23 04:04:55;;;;;;;33.40;18.40;;;;;;;;;;769223;180;1017248;-71
2024/01/23 04:07:21;;;;;;;41.77;18.97;;;;;;;;;;773629;180;919136;-71
2024/01/23 04:09:47;;;;;;;25.13;16.37;;;;;;;;;;781181;180;918870;-70
2024/01/23 04:12:13;;;;;;;32.00;18.00;;;;;;;;;;773565;180;918540;-71
2024/01/23 04:14:40;;;;;;;33.43;18.80;;;;;;;;;;777516;180;920942;-71
2024/01/23 04:17:05;;;;;;;39.30;20.53;;;;;;;;;;779983;180;918189;-71
2024/01/23 04:19:30;;;;;;;36.97;21.02;;;;;;;;;;774617;179;910068;-71
2024/01/23 04:21:56;;;;;;;42.70;21.13;;;;;;;;;;775983;178;919193;-70
2024/01/23 04:24:22;;;;;;;33.57;20.60;;;;;;;;;;780748;179;917021;-71
2024/01/23 04:26:48;;;;;;;46.50;22.93;;;;;;;;;;774571;179;918977;-70
2024/01/23 04:29:14;;;;;;;37.07;21.80;;;;;;;;;;776971;179;917887;-70
2024/01/23 04:31:40;;;;;;;44.33;23.67;;;;;;;;;;780142;179;918755;-72
2024/01/23 04:34:06;;;;;;;38.33;22.30;;;;;;;;;;776624;180;816196;-71
2024/01/23 04:36:32;;;;;;;50.67;22.60;;;;;;;;;;775319;180;765062;-71
2024/01/23 04:38:57;;;;;;;36.77;21.77;;;;;;;;;;775151;179;840060;-70
2024/01/23 04:41:24;;;;;;;37.70;21.00;;;;;;;;;;782695;180;714071;-71
2024/01/23 04:43:49;;;;;;;42.40;20.50;;;;;;;;;;777517;180;904476;-71
2024/01/23 04:46:15;;;;;;;39.05;23.33;;;;;;;;;;775322;179;1102904;-71
2024/01/23 04:48:41;;;;;;;45.23;23.00;;;;;;;;;;778497;180;913814;-70
2024/01/23 04:51:07;;;;;;;43.40;24.90;;;;;;;;;;778077;179;914575;-71
2024/01/23 04:53:33;;;;;;;42.00;24.07;;;;;;;;;;776102;180;836844;-71
2024/01/23 04:55:59;;;;;;;36.03;20.45;;;;;;;;;;777697;180;917620;-71
2024/01/23 04:58:24;;;;;;;34.83;21.50;;;;;;;;;;773455;180;835462;-71
2024/01/23 05:00:50;;;;;;;43.10;23.17;;;;;;;;;;778782;180;915319;-71
2024/01/23 05:03:16;;;;;;;45.50;20.73;;;;;;;;;;774606;180;624154;-71
2024/01/23 05:05:43;;;;;;;52.67;23.20;;;;;;;;;;778603;180;618864;-71
2024/01/23 05:08:08;;;;;;;44.03;21.37;;;;;;;;;;771351;179;712477;-71
2024/01/23 05:10:34;;;;;;;40.50;20.70;;;;;;;;;;775987;180;817487;-71
2024/01/23 05:13:00;;;;;;;45.60;23.00;;;;;;;;;;779404;180;815919;-70
2024/01/23 05:15:25;;;;;;;40.40;23.87;;;;;;;;;;770127;177;632377;-70
2024/01/23 05:17:51;;;;;;;44.53;21.20;;;;;;;;;;765411;180;918193;-71
2024/01/23 05:20:17;;;;;;;34.70;19.77;;;;;;;;;;777433;179;919122;-71
2024/01/23 05:22:43;;;;;;;42.03;20.50;;;;;;;;;;775919;179;816460;-71
2024/01/23 05:25:09;;;;;;;52.50;25.50;;;;;;;;;;779301;177;761132;-71
2024/01/23 05:27:35;;;;;;;45.37;22.87;;;;;;;;;;770798;178;685885;-70
2024/01/23 05:30:04;;;;;;;42.07;23.47;;;;;;;;;;777366;180;626945;-70
2024/01/23 05:32:26;;;;;;;40.17;21.00;;;;;;;;;;778059;178;624331;-71
2024/01/23 05:34:53;;;;;;;40.70;21.80;;;;;;;;;;777744;179;632442;-71
2024/01/23 05:37:19;;;;;;;34.33;21.77;;;;;;;;;;776321;180;622662;-71
2024/01/23 05:39:45;;;;;;;37.83;20.97;;;;;;;;;;770962;179;644154;-69
2024/01/23 05:42:11;;;;;;;44.47;20.03;;;;;;;;;;777954;179;901432;-71
2024/01/23 05:44:36;;;;;;;42.17;20.60;;;;;;;;;;781752;179;822257;-70
2024/01/23 05:47:02;;;;;;;39.90;22.07;;;;;;;;;;774860;177;639040;-70
2024/01/23 05:49:28;;;;;;;37.70;19.30;;;;;;;;;;769847;180;676513;-70
2024/01/23 05:51:54;;;;;;;35.90;19.70;;;;;;;;;;779803;179;626423;-70
2024/01/23 05:54:20;;;;;;;39.77;18.57;;;;;;;;;;781764;179;637092;-71
2024/01/23 05:56:46;;;;;;;36.60;19.67;;;;;;;;;;775836;180;627267;-70
2024/01/23 05:59:12;;;;;;;42.93;21.60;;;;;;;;;;776748;180;638170;-71
2024/01/23 06:01:37;;;;;;;44.97;20.20;;;;;;;;;;784144;179;636464;-71
2024/01/23 06:04:03;;;;;;;41.70;20.20;;;;;;;;;;777308;179;812864;-71
2024/01/23 06:06:29;;;;;;;41.63;21.95;;;;;;;;;;775568;179;917312;-71
2024/01/23 06:08:55;;;;;;;36.27;18.90;;;;;;;;;;772251;180;816511;-70
2024/01/23 06:11:21;;;;;;;30.03;17.70;;;;;;;;;;771824;180;815637;-71
2024/01/23 06:13:47;;;;;;;37.40;19.93;;;;;;;;;;760353;180;921355;-70
2024/01/23 06:16:13;;;;;;;36.83;19.83;;;;;;;;;;775019;180;919168;-71
2024/01/23 06:18:39;;;;;;;38.83;18.63;;;;;;;;;;784200;179;627087;-71
2024/01/23 06:21:05;;;;;;;38.33;18.60;;;;;;;;;;771934;180;817554;-71
2024/01/23 06:23:31;;;;;;;39.97;20.20;;;;;;;;;;776702;179;919312;-70
2024/01/23 06:25:57;;;;;;;35.83;19.70;;;;;;;;;;779264;179;634353;-70
2024/01/23 06:28:23;;;;;;;36.90;19.80;;;;;;;;;;775236;179;658072;-71
2024/01/23 06:30:48;;;;;;;37.83;18.47;;;;;;;;;;776572;180;815840;-71
2024/01/23 06:33:14;;;;;;;47.07;21.30;;;;;;;;;;766160;181;916550;-71
2024/01/23 06:35:40;;;;;;;39.70;19.58;;;;;;;;;;779732;179;918270;-70
2024/01/23 06:38:06;;;;;;;46.60;21.13;;;;;;;;;;774611;180;636611;-70
2024/01/23 06:40:32;;;;;;;46.17;21.07;;;;;;;;;;780649;180;919496;-70
2024/01/23 06:42:58;;;;;;;43.80;23.47;;;;;;;;;;771158;180;917954;-71
2024/01/23 06:45:23;;;;;;;49.97;23.43;;;;;;;;;;762038;180;1028791;-71
2024/01/23 06:47:49;;;;;;;48.23;26.23;;;;;;;;;;770885;179;919198;-71
2024/01/23 06:50:15;;;;;;;49.40;23.13;;;;;;;;;;782605;179;919150;-70
2024/01/23 06:52:41;;;;;;;40.93;21.80;;;;;;;;;;777104;179;924645;-70
2024/01/23 06:55:07;;;;;;;34.23;19.83;;;;;;;;;;776134;180;917534;-70
2024/01/23 06:57:33;;;;;;;41.97;21.60;;;;;;;;;;780562;179;915789;-70
2024/01/23 06:59:59;;;;;;;39.70;21.33;;;;;;;;;;773405;179;919413;-70
2024/01/23 07:02:25;;;;;;;43.40;22.93;;;;;;;;;;775372;179;919048;-70
2024/01/23 07:04:51;;;;;;;41.50;19.73;;;;;;;;;;776455;180;907023;-70
2024/01/23 07:07:17;;;;;;;44.40;20.83;;;;;;;;;;771493;180;815705;-70
2024/01/23 07:09:43;;;;;;;48.90;23.37;;;;;;;;;;772110;179;816145;-70
2024/01/23 07:12:08;;;;;;;44.53;21.40;;;;;;;;;;768819;180;918488;-70
2024/01/23 07:14:35;;;;;;;42.97;21.00;;;;;;;;;;772858;177;723747;-70
2024/01/23 07:17:00;;;;;;;41.00;20.97;;;;;;;;;;772584;178;812269;-71
2024/01/23 07:19:26;;;;;;;49.00;23.73;;;;;;;;;;770244;180;913718;-71
2024/01/23 07:21:52;;;;;;;44.97;22.70;;;;;;;;;;773521;180;813191;-70
2024/01/23 07:24:18;;;;;;;38.87;20.50;;;;;;;;;;769306;180;920363;-70
2024/01/23 07:26:44;;;;;;;52.37;26.07;;;;;;;;;;772002;179;907694;-71
2024/01/23 07:29:10;;;;;;;53.63;23.50;;;;;;;;;;776412;180;1516414;-70
2024/01/23 07:31:36;;;;;;;47.77;22.27;;;;;;;;;;769381;180;906696;-70
2024/01/23 07:34:01;;;;;;;45.15;23.38;;;;;;;;;;758384;181;1019870;-71
2024/01/23 07:36:28;;;;;;;44.57;24.07;;;;;;;;;;777147;180;907373;-71
2024/01/23 07:38:54;;;;;;;35.23;17.67;;;;;;;;;;767841;180;930895;-70
2024/01/23 07:41:20;;;;;;;37.37;19.23;;;;;;;;;;769714;178;918284;-70
2024/01/23 07:43:46;;;;;;;41.27;21.33;;;;;;;;;;761391;181;816965;-70
2024/01/23 07:46:12;;;;;;;34.47;18.77;;;;;;;;;;776410;179;748306;-70
2024/01/23 07:48:38;;;;;;;38.20;19.27;;;;;;;;;;775775;180;819217;-70
2024/01/23 07:51:04;;;;;;;32.13;17.97;;;;;;;;;;776136;179;714965;-70
2024/01/23 07:53:32;;;;;;;44.83;19.90;;;;;;;;;;781120;179;739957;-70
2024/01/23 07:55:57;;;;;;;38.70;21.60;;;;;;;;;;777349;178;922807;-70
2024/01/23 07:58:23;;;;;;;50.33;22.87;;;;;;;;;;774813;180;911676;-70
2024/01/23 08:00:48;;;;;;;47.30;22.37;;;;;;;;;;782260;179;920299;-70
2024/01/23 08:03:14;;;;;;;44.13;23.07;;;;;;;;;;773988;178;815839;-71
2024/01/23 08:05:40;;;;;;;49.75;25.37;;;;;;;;;;765339;180;769306;-71
2024/01/23 08:08:06;;;;;;;50.23;24.10;;;;;;;;;;763728;181;634894;-70
2024/01/23 08:10:34;;;;;;;49.27;20.50;;;;;;;;;;780875;179;631742;-70
2024/01/23 08:12:58;;;;;;;44.43;22.60;;;;;;;;;;767856;180;770643;-69
2024/01/23 08:15:24;;;;;;;38.50;19.83;;;;;;;;;;776663;178;720151;-72
2024/01/23 08:17:49;;;;;;;40.37;23.10;;;;;;;;;;781668;179;759872;-71
2024/01/23 08:20:15;;;;;;;46.10;19.43;;;;;;;;;;777248;179;714465;-70
2024/01/23 08:22:41;;;;;;;51.00;23.30;;;;;;;;;;774436;178;715362;-70
2024/01/23 08:25:08;;;;;;;39.93;22.07;;;;;;;;;;783119;177;625908;-70
2024/01/23 08:27:33;;;;;;;53.00;26.50;;;;;;;;;;779600;177;665346;-70
2024/01/23 08:29:59;;;;;;;52.03;23.73;;;;;;;;;;770925;181;674161;-70
2024/01/23 08:32:25;;;;;;;40.83;22.27;;;;;;;;;;777836;177;628031;-70
2024/01/23 08:34:51;;;;;;;50.70;26.27;;;;;;;;;;778496;180;623973;-70
2024/01/23 08:37:17;;;;;;;50.43;26.83;;;;;;;;;;772786;180;633652;-70
2024/01/23 08:39:43;;;;;;;46.73;24.97;;;;;;;;;;773923;179;635336;-71
2024/01/23 08:42:08;;;;;;;55.53;25.17;;;;;;;;;;782512;179;620006;-70
2024/01/23 08:44:36;;;;;;;56.67;27.63;;;;;;;;;;779158;180;632818;-70
2024/01/23 08:47:00;;;;;;;45.77;26.70;;;;;;;;;;775016;180;654578;-70
2024/01/23 08:49:26;;;;;;;44.83;24.77;;;;;;;;;;778530;180;625539;-70
2024/01/23 08:51:52;;;;;;;52.43;26.30;;;;;;;;;;769980;180;629797;-70
2024/01/23 08:54:19;;;;;;;45.53;23.17;;;;;;;;;;778484;179;916349;-69
2024/01/23 08:56:44;;;;;;;45.65;23.92;;;;;;;;;;773403;179;920367;-71
2024/01/23 08:59:10;;;;;;;48.77;23.13;;;;;;;;;;778768;180;914381;-69
2024/01/23 09:01:36;;;;;;;43.97;23.77;;;;;;;;;;767053;180;919425;-69
2024/01/23 09:04:02;;;;;;;47.42;23.30;;;;;;;;;;775284;180;918223;-70
2024/01/23 09:06:27;;;;;;;51.07;22.50;;;;;;;;;;780956;179;816333;-70
2024/01/23 09:08:53;;;;;;;45.83;24.40;;;;;;;;;;778998;179;933559;-70
2024/01/23 09:11:19;;;;;;;42.80;23.23;;;;;;;;;;775104;179;919375;-70
2024/01/23 09:13:45;;;;;;;48.10;22.40;;;;;;;;;;783697;180;893374;-70
2024/01/23 09:16:11;;;;;;;48.97;24.03;;;;;;;;;;776971;179;813449;-69
2024/01/23 09:18:37;;;;;;;38.93;19.63;;;;;;;;;;769445;180;816312;-69
2024/01/23 09:21:03;;;;;;;42.50;21.33;;;;;;;;;;782730;179;918716;-69
2024/01/23 09:23:29;;;;;;;41.77;21.27;;;;;;;;;;775022;180;1021772;-69
2024/01/23 09:25:55;;;;;;;43.57;23.97;;;;;;;;;;775047;179;829646;-69
2024/01/23 09:28:21;;;;;;;43.17;24.60;;;;;;;;;;774904;179;915446;-70
2024/01/23 09:30:47;;;;;;;44.47;23.10;;;;;;;;;;775226;180;915580;-70
2024/01/23 09:33:13;;;;;;;47.00;22.50;;;;;;;;;;776242;179;918851;-70
2024/01/23 09:35:39;;;;;;;45.33;22.20;;;;;;;;;;768304;180;918158;-69
2024/01/23 09:38:05;;;;;;;41.20;21.57;;;;;;;;;;773746;180;920400;-70
2024/01/23 09:40:31;;;;;;;41.13;21.67;;;;;;;;;;776226;179;918161;-69
2024/01/23 09:42:57;;;;;;;41.77;23.17;;;;;;;;;;770547;179;919038;-70
2024/01/23 09:45:22;;;;;;;41.45;22.98;;;;;;;;;;782833;179;816903;-70
2024/01/23 09:47:48;;;;;;;39.77;22.00;;;;;;;;;;770877;180;822330;-70
2024/01/23 09:50:14;;;;;;;43.60;23.93;;;;;;;;;;771122;180;871360;-70
2024/01/23 09:52:43;;;;;;;36.20;20.67;;;;;;;;;;772119;179;905744;-70
2024/01/23 09:55:09;;;;;;;42.85;20.77;;;;;;;;;;776936;180;917994;-71
2024/01/23 09:57:35;;;;;;;38.93;19.60;;;;;;;;;;772135;180;901821;-71
2024/01/23 10:00:01;;;;;;;34.20;18.40;;;;;;;;;;775577;179;933548;-71
2024/01/23 10:02:27;;;;;;;38.50;20.17;;;;;;;;;;777263;180;922624;-71
2024/01/23 10:04:53;;;;;;;37.05;19.75;;;;;;;;;;777906;179;915531;-70
2024/01/23 10:07:18;;;;;;;34.43;19.07;;;;;;;;;;770736;179;919318;-71
2024/01/23 10:09:48;;;;;;;37.10;18.83;;;;;;;;;;775841;180;918021;-70
2024/01/23 10:12:14;;;;;;;38.43;18.83;;;;;;;;;;778941;180;919085;-71
2024/01/23 10:14:43;;;;;;;37.90;18.53;;;;;;;;;;772816;180;982678;-71
2024/01/23 10:17:07;;;;;;;36.53;19.50;;;;;;;;;;773592;180;921276;-73
2024/01/23 10:19:33;;;;;;;36.83;20.03;;;;;;;;;;785293;177;816988;-71
2024/01/23 10:21:59;;;;;;;36.97;21.27;;;;;;;;;;776773;179;817737;-71
2024/01/23 10:24:25;;;;;;;47.67;23.87;;;;;;;;;;770732;180;914546;-71
2024/01/23 10:26:52;;;;;;;42.33;21.53;;;;;;;;;;781468;180;889543;-71
2024/01/23 10:29:17;;;;;;;37.07;21.70;;;;;;;;;;775616;180;811461;-71
2024/01/23 10:31:43;;;;;;;51.93;27.87;;;;;;;;;;778196;179;815703;-71
2024/01/23 10:34:09;;;;;;;38.43;22.50;;;;;;;;;;779795;179;816978;-71
2024/01/23 10:36:35;;;;;;;39.42;20.75;;;;;;;;;;777721;179;919437;-72
2024/01/23 10:39:01;;;;;;;42.60;19.80;;;;;;;;;;775293;179;886711;-71
2024/01/23 10:41:27;;;;;;;36.03;18.87;;;;;;;;;;769826;180;919356;-71
2024/01/23 10:43:53;;;;;;;53.87;25.20;;;;;;;;;;779266;180;1020916;-71
2024/01/23 10:46:18;;;;;;;40.73;21.47;;;;;;;;;;772801;179;918971;-71
2024/01/23 10:48:44;;;;;;;40.07;19.83;;;;;;;;;;776422;179;918445;-72
2024/01/23 10:51:10;;;;;;;37.70;21.80;;;;;;;;;;773972;180;917687;-70
2024/01/23 10:53:38;;;;;;;44.73;22.70;;;;;;;;;;776509;180;923005;-71
2024/01/23 10:56:04;;;;;;;43.70;21.20;;;;;;;;;;774870;180;918002;-71
2024/01/23 10:58:30;;;;;;;53.80;25.37;;;;;;;;;;762663;183;917780;-71
2024/01/23 11:00:55;;;;;;;50.97;24.90;;;;;;;;;;774028;179;896356;-71
2024/01/23 11:03:21;;;;;;;43.60;23.42;;;;;;;;;;768542;179;919598;-72
2024/01/23 11:05:48;;;;;;;43.43;24.17;;;;;;;;;;774481;179;917386;-71
2024/01/23 11:08:16;;;;;;;40.77;21.23;;;;;;;;;;780551;177;917316;-70
2024/01/23 11:10:44;;;;;;;47.13;22.30;;;;;;;;;;760597;182;917465;-70
2024/01/23 11:13:10;;;;;;;49.87;23.80;;;;;;;;;;771996;180;916283;-70
2024/01/23 11:15:35;;;;;;;40.60;19.50;;;;;;;;;;773389;180;920757;-71
2024/01/23 11:18:07;;;;;;;36.60;20.40;;;;;;;;;;779595;180;817593;-71
2024/01/23 11:20:33;;;;;;;40.83;19.43;;;;;;;;;;775377;180;816899;-71
2024/01/23 11:22:59;;;;;;;34.03;18.53;;;;;;;;;;776121;180;945834;-70
2024/01/23 11:25:24;;;;;;;33.20;17.53;;;;;;;;;;777661;180;919548;-71
2024/01/23 11:27:50;;;;;;;31.57;17.77;;;;;;;;;;772832;180;926354;-71
2024/01/23 11:30:16;;;;;;;36.57;17.87;;;;;;;;;;769159;180;927624;-71
2024/01/23 11:32:42;;;;;;;43.22;19.48;;;;;;;;;;766115;181;918420;-71
2024/01/23 11:35:11;;;;;;;34.80;20.90;;;;;;;;;;768950;179;907683;-69
2024/01/23 11:37:36;;;;;;;41.83;19.77;;;;;;;;;;772847;179;1125163;-70
2024/01/23 11:40:03;;;;;;;46.53;22.50;;;;;;;;;;773770;180;918003;-70
2024/01/23 11:42:35;;;;;;;41.47;22.23;;;;;;;;;;780254;180;920541;-70
2024/01/23 11:45:06;;;;;;;46.30;21.97;;;;;;;;;;771396;180;918577;-72
2024/01/23 11:47:32;;;;;;;39.80;20.50;;;;;;;;;;776828;180;814656;-70
2024/01/23 11:49:58;;;;;;;41.03;21.50;;;;;;;;;;774056;180;914594;-70
2024/01/23 11:52:24;;;;;;;38.27;19.40;;;;;;;;;;778635;180;638915;-70
2024/01/23 11:54:49;;;;;;;40.67;23.30;;;;;;;;;;771052;180;711841;-70
2024/01/23 11:57:15;;;;;;;50.80;23.10;;;;;;;;;;770220;179;919233;-70
2024/01/23 11:59:42;;;;;;;42.30;22.00;;;;;;;;;;779653;180;810378;-70
2024/01/23 12:02:07;;;;;;;38.23;21.63;;;;;;;;;;773996;180;920436;-70
2024/01/23 12:04:35;;;;;;;44.83;19.60;;;;;;;;;;778366;179;817404;-71
2024/01/23 12:06:59;;;;;;;40.90;20.73;;;;;;;;;;782338;179;917055;-71
2024/01/23 12:09:26;;;;;;;35.50;18.50;;;;;;;;;;770683;179;919423;-70
2024/01/23 12:11:50;;;;;;;34.37;18.57;;;;;;;;;;774900;180;921586;-70
2024/01/23 12:14:16;;;;;;;36.57;18.83;;;;;;;;;;771653;180;624621;-71
2024/01/23 12:16:42;;;;;;;33.47;17.20;;;;;;;;;;774565;180;918657;-71
2024/01/23 12:19:09;;;;;;;32.67;15.50;;;;;;;;;;778583;179;623899;-70
2024/01/23 12:21:34;;;;;;;33.20;16.90;;;;;;;;;;779389;179;632208;-70
2024/01/23 12:24:00;;;;;;;30.33;17.33;;;;;;;;;;781911;179;799750;-70
2024/01/23 12:26:26;;;;;;;27.87;14.70;;;;;;;;;;770681;180;921192;-69
2024/01/23 12:28:51;;;;;;;33.70;15.30;;;;;;;;;;777044;179;790190;-70
2024/01/23 12:31:19;;;;;;;33.07;16.10;;;;;;;;;;777767;179;656575;-70
2024/01/23 12:33:43;;;;;;;26.47;14.43;;;;;;;;;;779723;179;634110;-70
2024/01/23 12:36:09;;;;;;;31.03;15.87;;;;;;;;;;777692;180;628844;-70
2024/01/23 12:38:35;;;;;;;27.10;15.23;;;;;;;;;;776796;180;630986;-70
2024/01/23 12:41:01;;;;;;;29.07;16.90;;;;;;;;;;768270;182;637564;-70
2024/01/23 12:43:26;;;;;;;37.97;18.60;;;;;;;;;;778822;179;631481;-69
2024/01/23 12:45:52;;;;;;;39.60;18.97;;;;;;;;;;776703;179;644682;-70
2024/01/23 12:48:18;;;;;;;32.13;16.33;;;;;;;;;;786331;179;632744;-70
2024/01/23 12:50:44;;;;;;;32.30;17.30;;;;;;;;;;779121;180;625200;-70
2024/01/23 12:53:10;;;;;;;44.50;22.97;;;;;;;;;;779772;179;629355;-70
2024/01/23 12:55:36;;;;;;;37.10;19.70;;;;;;;;;;773856;180;621089;-70
2024/01/23 12:58:02;;;;;;;36.27;18.10;;;;;;;;;;778219;179;628073;-70
2024/01/23 13:00:27;;;;;;;38.57;18.70;;;;;;;;;;779241;179;630191;-70
2024/01/23 13:02:53;;;;;;;38.50;20.70;;;;;;;;;;783859;177;642671;-70
2024/01/23 13:05:21;;;;;;;38.00;20.53;;;;;;;;;;779232;179;918792;-70
2024/01/23 13:07:45;;;;;;;40.70;19.70;;;;;;;;;;778450;179;817173;-70
2024/01/23 13:10:11;;;;;;;36.10;18.83;;;;;;;;;;772216;180;937691;-70
2024/01/23 13:12:37;;;;;;;33.77;19.37;;;;;;;;;;779886;179;919262;-69
2024/01/23 13:15:02;;;;;;;31.30;17.33;;;;;;;;;;772820;180;918588;-71
2024/01/23 13:17:28;;;;;;;36.75;19.90;;;;;;;;;;770430;177;915828;-70
2024/01/23 13:19:54;;;;;;;33.57;18.90;;;;;;;;;;780866;177;917068;-70
2024/01/23 13:22:20;;;;;;;32.63;18.30;;;;;;;;;;767826;180;919117;-69
2024/01/23 13:24:46;;;;;;;32.23;17.97;;;;;;;;;;765736;177;918671;-70
2024/01/23 13:27:12;;;;;;;39.50;18.50;;;;;;;;;;772483;180;919254;-69
2024/01/23 13:29:38;;;;;;;35.95;19.87;;;;;;;;;;773712;179;1124648;-70
2024/01/23 13:32:07;;;;;;;32.97;17.80;;;;;;;;;;773862;179;919033;-70
2024/01/23 13:34:32;;;;;;;35.13;20.13;;;;;;;;;;773093;180;919160;-70
2024/01/23 13:36:56;;;;;;;31.80;16.03;;;;;;;;;;767053;182;918341;-70
2024/01/23 13:39:22;;;;;;;44.67;20.57;;;;;;;;;;758483;183;918367;-70
2024/01/23 13:41:48;;;;;;;39.67;20.37;;;;;;;;;;757902;182;919893;-70
2024/01/23 13:44:14;;;;;;;34.77;18.47;;;;;;;;;;778944;180;919244;-69
2024/01/23 13:46:39;;;;;;;35.37;18.97;;;;;;;;;;775586;180;920220;-69
2024/01/23 13:49:06;;;;;;;37.10;19.50;;;;;;;;;;773691;179;918966;-71
2024/01/23 13:51:31;;;;;;;46.50;23.33;;;;;;;;;;773336;180;919972;-71
2024/01/23 13:53:58;;;;;;;38.13;20.20;;;;;;;;;;766957;181;919428;-70
2024/01/23 13:56:24;;;;;;;41.73;19.73;;;;;;;;;;772805;179;918677;-70